Time;durP1;ratioP1;P1;durP2;ratioP2;P2;SDS_P1;SDS_P2;PMS_P1;PMS_P2;Temp;Humidity;BMP_temperature;BMP_pressure;BME280_temperature;BME280_humidity;BME280_pressure;Samples;Min_cycle;Max_cycle;Signal;HPM_P1;HPM_P2
2022/09/25 00:01:31;;;;;;;;;;;;;;;10.18;76.16;98959.41;1763264;81;20138;-48
2022/09/25 00:03:56;;;;;;;;;;;;;;;10.17;76.15;98952.48;1763287;81;20161;-48
2022/09/25 00:06:24;;;;;;;;;;;;;;;10.18;76.39;98950.21;1763397;81;20114;-50
2022/09/25 00:08:51;;;;;;;;;;;;;;;10.16;76.24;98943.73;1763485;80;20106;-48
2022/09/25 00:11:23;;;;;;;;;;;;;;;10.16;76.43;98942.89;1763368;81;20090;-48
2022/09/25 00:13:49;;;;;;;;;;;;;;;10.15;76.17;98935.48;1762592;81;20098;-49
2022/09/25 00:16:17;;;;;;;;;;;;;;;10.15;75.82;98941.19;1763255;81;20431;-49
2022/09/25 00:21:30;;;;;;;;;;;;;;;10.18;75.70;98931.81;1763222;81;20126;-50
2022/09/25 00:23:54;;;;;;;;;;;;;;;10.17;75.99;98935.40;1763052;81;20178;-50
2022/09/25 00:26:20;;;;;;;;;;;;;;;10.18;75.46;98923.94;1763342;81;20165;-50
2022/09/25 00:28:48;;;;;;;;;;;;;;;10.15;75.99;98928.91;1763254;81;20102;-45
2022/09/25 00:31:23;;;;;;;;;;;;;;;10.16;76.14;98925.33;1763273;81;20106;-48
2022/09/25 00:33:46;;;;;;;;;;;;;;;10.16;75.75;98925.81;1763143;81;20106;-46
2022/09/25 00:36:12;;;;;;;;;;;;;;;10.15;76.25;98924.97;1763225;81;20114;-51
2022/09/25 00:38:38;;;;;;;;;;;;;;;10.14;76.04;98921.12;1763360;81;20434;-47
2022/09/25 00:41:05;;;;;;;;;;;;;;;10.12;76.13;98925.14;1763131;81;20106;-51
2022/09/25 00:43:45;;;;;;;;;;;;;;;10.11;76.25;98917.34;1763166;81;20155;-45
2022/09/25 00:46:14;;;;;;;;;;;;;;;10.10;76.39;98918.30;1763215;81;20106;-45
2022/09/25 00:48:43;;;;;;;;;;;;;;;10.09;76.45;98920.55;1757019;81;20106;-49
2022/09/25 00:51:10;;;;;;;;;;;;;;;10.10;76.56;98920.94;1754597;81;20114;-48
2022/09/25 00:53:39;;;;;;;;;;;;;;;10.09;76.45;98913.97;1755271;82;20412;-46
2022/09/25 00:56:06;;;;;;;;;;;;;;;10.09;76.84;98917.91;1755180;81;20495;-45
2022/09/25 00:58:33;;;;;;;;;;;;;;;10.07;76.54;98921.10;1755192;82;20111;-47
2022/09/25 01:00:59;;;;;;;;;;;;;;;10.05;76.29;98917.73;1755158;81;20134;-48
2022/09/25 01:03:26;;;;;;;;;;;;;;;10.04;76.44;98918.65;1755105;81;20374;-47
2022/09/25 01:05:53;;;;;;;;;;;;;;;10.00;76.36;98921.92;1755210;82;20103;-48
2022/09/25 01:08:22;;;;;;;;;;;;;;;9.97;76.62;98919.02;1755280;81;20102;-50
2022/09/25 01:10:48;;;;;;;;;;;;;;;9.95;75.99;98919.58;1755252;81;20106;-49
2022/09/25 01:13:14;;;;;;;;;;;;;;;9.93;77.04;98917.52;1755248;81;20163;-47
2022/09/25 01:15:49;;;;;;;;;;;;;;;9.92;77.21;98907.94;1755112;82;20110;-50
2022/09/25 01:18:18;;;;;;;;;;;;;;;9.92;77.44;98911.87;1754985;81;20114;-46
2022/09/25 01:21:10;;;;;;;;;;;;;;;9.90;77.89;98908.50;1753851;82;20106;-48
2022/09/25 01:23:56;;;;;;;;;;;;;;;9.90;77.71;98911.13;1755190;82;20095;-47
2022/09/25 01:26:58;;;;;;;;;;;;;;;9.91;77.62;98910.17;1755068;81;20138;-49
2022/09/25 01:29:27;;;;;;;;;;;;;;;9.91;77.59;98908.86;1755198;82;20131;-48
2022/09/25 01:32:02;;;;;;;;;;;;;;;9.91;77.34;98904.08;1755279;82;20130;-47
2022/09/25 01:34:40;;;;;;;;;;;;;;;9.90;77.43;98904.56;1755199;82;20115;-48
2022/09/25 01:37:18;;;;;;;;;;;;;;;9.88;78.13;98902.49;1751347;81;20419;-48
2022/09/25 01:39:50;;;;;;;;;;;;;;;9.87;77.16;98907.35;1755191;82;20435;-47
2022/09/25 01:42:19;;;;;;;;;;;;;;;9.88;77.33;98912.16;1753995;81;20419;-49
2022/09/25 01:45:01;;;;;;;;;;;;;;;9.87;77.84;98909.98;1755251;80;20106;-47
2022/09/25 01:47:28;;;;;;;;;;;;;;;9.84;77.72;98908.87;1753840;82;20110;-47
2022/09/25 01:49:57;;;;;;;;;;;;;;;9.87;77.90;98909.14;1746756;81;20107;-48
2022/09/25 01:52:26;;;;;;;;;;;;;;;9.87;77.60;98905.20;1746621;81;20099;-49
2022/09/25 01:54:59;;;;;;;;;;;;;;;9.87;77.81;98905.20;1746623;81;20146;-45
2022/09/25 01:57:40;;;;;;;;;;;;;;;9.88;78.07;98910.84;1746726;81;20119;-46
2022/09/25 02:00:09;;;;;;;;;;;;;;;9.89;77.97;98905.95;1746813;82;20105;-47
2022/09/25 02:02:42;;;;;;;;;;;;;;;9.90;77.34;98909.81;1747046;82;20135;-47
2022/09/25 02:05:11;;;;;;;;;;;;;;;9.87;77.84;98906.04;1746162;82;20106;-45
2022/09/25 02:07:40;;;;;;;;;;;;;;;9.87;78.02;98908.66;1714790;82;20530;-50
2022/09/25 02:10:11;;;;;;;;;;;;;;;9.87;78.08;98903.89;1746932;82;20095;-47
2022/09/25 02:12:40;;;;;;;;;;;;;;;9.86;77.69;98904.37;1746780;81;20111;-46
2022/09/25 02:15:25;;;;;;;;;;;;;;;9.86;77.86;98902.19;1745781;82;20103;-45
2022/09/25 02:20:45;;;;;;;;;;;;;;;9.83;78.47;98903.70;1746857;82;20448;-47
2022/09/25 02:23:18;;;;;;;;;;;;;;;9.82;78.77;98908.56;1746726;81;20106;-46
2022/09/25 02:26:02;;;;;;;;;;;;;;;9.82;78.35;98901.52;1746123;82;20127;-46
2022/09/25 02:28:27;;;;;;;;;;;;;;;9.80;78.35;98903.39;1745969;82;20171;-45
2022/09/25 02:30:55;;;;;;;;;;;;;;;9.83;78.29;98903.22;1746770;82;20504;-45
2022/09/25 02:33:21;;;;;;;;;;;;;;;9.83;78.48;98891.41;1746744;81;20108;-47
2022/09/25 02:35:46;;;;;;;;;;;;;;;9.82;78.75;98884.92;1746830;81;20458;-48
2022/09/25 02:38:12;;;;;;;;;;;;;;;9.85;78.48;98892.63;1746884;82;20103;-49
2022/09/25 02:40:51;;;;;;;;;;;;;;;9.84;78.37;98888.30;1746941;82;20530;-47
2022/09/25 02:43:55;;;;;;;;;;;;;;;9.84;78.02;98889.62;1746881;82;20103;-49
2022/09/25 02:46:27;;;;;;;;;;;;;;;9.84;78.05;98890.48;1746750;82;20424;-45
2022/09/25 02:49:11;;;;;;;;;;;;;;;9.82;78.59;98881.83;1752095;81;20156;-46
2022/09/25 02:51:58;;;;;;;;;;;;;;;9.83;78.65;98878.75;1754368;81;20416;-49
2022/09/25 02:54:30;;;;;;;;;;;;;;;9.81;77.93;98874.90;1754433;82;20134;-45
2022/09/25 02:57:08;;;;;;;;;;;;;;;9.79;77.97;98871.52;1755364;82;20137;-49
2022/09/25 02:59:37;;;;;;;;;;;;;;;9.78;78.31;98876.38;1755424;82;20427;-44
2022/09/25 03:02:03;;;;;;;;;;;;;;;9.73;78.39;98870.10;1755386;81;20107;-45
2022/09/25 03:04:33;;;;;;;;;;;;;;;9.73;78.80;98878.42;1755409;81;20415;-46
2022/09/25 03:06:57;;;;;;;;;;;;;;;9.71;78.82;98873.73;1755149;81;20111;-47
2022/09/25 03:09:24;;;;;;;;;;;;;;;9.71;78.76;98879.83;1755253;82;20107;-46
2022/09/25 03:11:50;;;;;;;;;;;;;;;9.69;79.29;98875.61;1755340;82;20458;-49
2022/09/25 03:14:16;;;;;;;;;;;;;;;9.68;78.97;98877.84;1755318;82;20119;-46
2022/09/25 03:16:50;;;;;;;;;;;;;;;9.66;78.82;98877.09;1755398;82;20463;-47
2022/09/25 03:19:18;;;;;;;;;;;;;;;9.64;78.67;98873.27;1755206;81;20109;-47
2022/09/25 03:21:44;;;;;;;;;;;;;;;9.60;79.23;98866.48;1755545;81;20173;-47
2022/09/25 03:24:10;;;;;;;;;;;;;;;9.60;79.14;98873.05;1755245;81;20130;-49
2022/09/25 03:26:36;;;;;;;;;;;;;;;9.57;79.08;98867.52;1755240;82;20107;-44
2022/09/25 03:29:02;;;;;;;;;;;;;;;9.56;79.49;98866.29;1755310;82;20106;-50
2022/09/25 03:31:28;;;;;;;;;;;;;;;9.55;79.38;98863.27;1755316;82;20102;-49
2022/09/25 03:33:55;;;;;;;;;;;;;;;9.51;79.77;98867.85;1755118;80;20106;-47
2022/09/25 03:36:23;;;;;;;;;;;;;;;9.49;79.73;98859.70;1755255;81;20130;-50
2022/09/25 03:38:51;;;;;;;;;;;;;;;9.43;80.19;98859.59;1755255;82;20107;-47
2022/09/25 03:41:20;;;;;;;;;;;;;;;9.43;79.98;98857.44;1755353;82;20110;-47
2022/09/25 03:43:50;;;;;;;;;;;;;;;9.38;80.62;98862.94;1755421;82;20106;-47
2022/09/25 03:46:14;;;;;;;;;;;;;;;9.34;80.99;98867.99;1755144;82;20407;-47
2022/09/25 03:48:41;;;;;;;;;;;;;;;9.28;81.13;98860.01;1755162;81;20125;-44
2022/09/25 03:51:07;;;;;;;;;;;;;;;9.26;80.99;98863.19;1755270;82;20139;-47
2022/09/25 03:53:34;;;;;;;;;;;;;;;9.22;81.21;98865.14;1755240;81;20119;-44
2022/09/25 03:56:03;;;;;;;;;;;;;;;9.17;81.31;98864.55;1755265;82;20107;-46
2022/09/25 03:58:29;;;;;;;;;;;;;;;9.15;81.76;98862.92;1754703;82;20133;-47
2022/09/25 04:00:56;;;;;;;;;;;;;;;9.11;81.66;98866.66;1755159;81;20475;-47
2022/09/25 04:03:23;;;;;;;;;;;;;;;9.11;81.48;98873.22;1755126;82;20108;-48
2022/09/25 04:05:49;;;;;;;;;;;;;;;9.07;81.42;98875.16;1754566;82;20458;-49
2022/09/25 04:08:15;;;;;;;;;;;;;;;9.04;81.62;98874.05;1754251;81;20138;-47
2022/09/25 04:10:41;;;;;;;;;;;;;;;9.02;81.81;98874.57;1754187;81;20146;-46
2022/09/25 04:13:11;;;;;;;;;;;;;;;8.97;82.02;98874.00;1755136;81;20127;-46
2022/09/25 04:15:35;;;;;;;;;;;;;;;8.96;82.26;98876.23;1755051;81;20126;-50
2022/09/25 04:18:01;;;;;;;;;;;;;;;8.96;82.83;98876.23;1755157;81;20673;-47
2022/09/25 04:20:27;;;;;;;;;;;;;;;8.97;82.42;98879.25;1755148;82;20126;-46
2022/09/25 04:22:52;;;;;;;;;;;;;;;8.94;82.80;98874.16;1755228;82;20098;-45
2022/09/25 04:25:20;;;;;;;;;;;;;;;8.93;82.81;98875.08;1755142;82;20392;-45
2022/09/25 04:27:45;;;;;;;;;;;;;;;8.93;82.66;98872.45;1755052;81;20108;-47
2022/09/25 04:30:12;;;;;;;;;;;;;;;8.91;82.78;98872.54;1755282;81;20728;-48
2022/09/25 04:35:21;;;;;;;;;;;;;;;8.87;83.27;98862.32;1755219;82;20102;-50
2022/09/25 04:37:47;;;;;;;;;;;;;;;8.83;83.24;98862.48;1755229;82;20463;-45
2022/09/25 04:40:12;;;;;;;;;;;;;;;8.83;83.39;98862.48;1755190;82;20135;-46
2022/09/25 04:42:38;;;;;;;;;;;;;;;8.84;83.28;98864.63;1755179;82;20113;-49
2022/09/25 04:45:05;;;;;;;;;;;;;;;8.81;83.74;98871.38;1755218;82;20464;-47
2022/09/25 04:47:30;;;;;;;;;;;;;;;8.81;83.51;98872.69;1755157;82;20114;-51
2022/09/25 04:49:56;;;;;;;;;;;;;;;8.79;84.06;98867.99;1755239;82;20095;-47
2022/09/25 04:52:22;;;;;;;;;;;;;;;8.82;83.29;98869.98;1755171;82;20139;-50
2022/09/25 04:54:47;;;;;;;;;;;;;;;8.79;83.96;98863.59;1755244;80;20403;-49
2022/09/25 04:57:15;;;;;;;;;;;;;;;8.79;84.04;98852.27;1755059;82;20106;-48
2022/09/25 04:59:40;;;;;;;;;;;;;;;8.79;83.67;98860.97;1755126;81;20130;-47
2022/09/25 05:02:06;;;;;;;;;;;;;;;8.76;84.06;98860.28;1755214;81;20111;-46
2022/09/25 05:04:31;;;;;;;;;;;;;;;8.78;84.18;98863.66;1755266;82;20146;-48
2022/09/25 05:06:57;;;;;;;;;;;;;;;8.77;84.33;98857.59;1755185;82;20102;-48
2022/09/25 05:09:23;;;;;;;;;;;;;;;8.82;84.14;98862.12;1755221;82;20115;-47
2022/09/25 05:11:48;;;;;;;;;;;;;;;8.81;84.40;98861.72;1755245;82;20099;-47
2022/09/25 05:14:14;;;;;;;;;;;;;;;8.87;83.65;98864.94;1755146;81;20126;-45
2022/09/25 05:16:39;;;;;;;;;;;;;;;8.86;84.04;98864.55;1755197;82;20106;-50
2022/09/25 05:19:05;;;;;;;;;;;;;;;8.89;84.00;98867.02;1755280;82;20400;-44
2022/09/25 05:21:31;;;;;;;;;;;;;;;8.89;84.06;98869.16;1755171;82;20099;-48
2022/09/25 05:23:57;;;;;;;;;;;;;;;8.89;84.33;98867.02;1755310;82;20117;-49
2022/09/25 05:26:23;;;;;;;;;;;;;;;8.91;84.20;98873.02;1755084;81;20114;-50
2022/09/25 05:28:49;;;;;;;;;;;;;;;8.95;83.57;98881.08;1755063;82;20153;-47
2022/09/25 05:31:15;;;;;;;;;;;;;;;8.97;84.01;98880.56;1755123;82;20094;-44
2022/09/25 05:33:44;;;;;;;;;;;;;;;8.99;83.59;98876.08;1755063;81;20106;-47
2022/09/25 05:36:11;;;;;;;;;;;;;;;9.03;83.52;98878.42;1755094;81;20418;-44
2022/09/25 05:38:38;;;;;;;;;;;;;;;9.06;83.80;98883.11;1755187;81;20447;-46
2022/09/25 05:41:06;;;;;;;;;;;;;;;9.07;83.65;98878.27;1755203;82;20438;-46
2022/09/25 05:43:32;;;;;;;;;;;;;;;9.10;83.73;98879.41;1755079;82;20113;-47
2022/09/25 05:45:59;;;;;;;;;;;;;;;9.11;84.03;98881.09;1755171;82;20099;-51
2022/09/25 05:48:25;;;;;;;;;;;;;;;9.15;83.98;98879.97;1755304;81;20114;-45
2022/09/25 05:50:54;;;;;;;;;;;;;;;9.16;83.32;98870.71;1755217;82;20107;-49
2022/09/25 05:53:20;;;;;;;;;;;;;;;9.17;83.82;98871.11;1755117;82;20106;-48
2022/09/25 05:55:53;;;;;;;;;;;;;;;9.20;84.11;98864.38;1755102;82;20110;-50
2022/09/25 05:58:20;;;;;;;;;;;;;;;9.26;83.94;98867.56;1755222;82;20098;-49
2022/09/25 06:00:47;;;;;;;;;;;;;;;9.29;83.60;98864.78;1755132;82;20106;-50
2022/09/25 06:03:13;;;;;;;;;;;;;;;9.32;83.65;98871.17;1755102;82;20440;-48
2022/09/25 06:05:39;;;;;;;;;;;;;;;9.31;83.45;98867.68;1755115;82;20111;-50
2022/09/25 06:08:05;;;;;;;;;;;;;;;9.38;83.70;98865.56;1755058;82;20134;-48
2022/09/25 06:10:31;;;;;;;;;;;;;;;9.40;83.64;98866.31;1755150;82;20115;-47
2022/09/25 06:13:00;;;;;;;;;;;;;;;9.43;83.39;98870.09;1755160;82;20514;-48
2022/09/25 06:15:31;;;;;;;;;;;;;;;9.46;83.44;98870.36;1755144;82;20107;-48
2022/09/25 06:17:56;;;;;;;;;;;;;;;9.51;83.28;98872.27;1754736;81;20106;-48
2022/09/25 06:20:23;;;;;;;;;;;;;;;9.55;83.17;98879.89;1755026;81;20111;-48
2022/09/25 06:22:54;;;;;;;;;;;;;;;9.58;83.10;98874.44;1755116;82;20460;-51
2022/09/25 06:25:25;;;;;;;;;;;;;;;9.63;82.91;98873.35;1754664;82;20099;-46
2022/09/25 06:27:53;;;;;;;;;;;;;;;9.67;82.47;98876.17;1755056;82;20130;-48
2022/09/25 06:30:20;;;;;;;;;;;;;;;9.70;82.80;98870.75;1754694;80;20446;-48
2022/09/25 06:32:45;;;;;;;;;;;;;;;9.73;82.51;98868.79;1755138;82;20138;-48
2022/09/25 06:35:11;;;;;;;;;;;;;;;9.74;82.76;98862.59;1755130;80;20175;-50
2022/09/25 06:37:36;;;;;;;;;;;;;;;9.79;82.09;98862.33;1755178;82;20479;-48
2022/09/25 06:40:02;;;;;;;;;;;;;;;9.81;81.79;98860.45;1755049;82;20146;-49
2022/09/25 06:42:28;;;;;;;;;;;;;;;9.85;82.46;98865.06;1755167;82;20099;-48
2022/09/25 06:44:53;;;;;;;;;;;;;;;9.86;81.94;98864.97;1755202;82;20103;-49
2022/09/25 06:47:20;;;;;;;;;;;;;;;9.92;82.50;98864.59;1755272;82;20102;-47
2022/09/25 06:49:46;;;;;;;;;;;;;;;9.94;81.67;98868.45;1755239;81;20115;-48
2022/09/25 06:52:11;;;;;;;;;;;;;;;9.95;81.97;98870.12;1755343;82;20561;-48
2022/09/25 06:54:37;;;;;;;;;;;;;;;9.99;81.78;98877.74;1754679;82;20138;-48
2022/09/25 06:57:03;;;;;;;;;;;;;;;10.02;82.57;98873.23;1754283;81;20111;-49
2022/09/25 06:59:29;;;;;;;;;;;;;;;10.04;81.78;98872.23;1754483;81;20146;-51
2022/09/25 07:03:43;;;;;;;;;;;;;;;10.10;81.63;98872.33;1754084;81;20134;-46
2022/09/25 07:04:24;;;;;;;;;;;;;;;10.11;81.36;98872.20;1754524;80;20126;-51
2022/09/25 07:06:50;;;;;;;;;;;;;;;10.16;80.94;98873.26;1754341;82;20114;-52
2022/09/25 07:09:16;;;;;;;;;;;;;;;10.21;81.49;98869.89;1755160;81;20110;-53
2022/09/25 07:11:42;;;;;;;;;;;;;;;10.25;81.14;98872.70;1755194;82;20143;-47
2022/09/25 07:14:08;;;;;;;;;;;;;;;10.31;80.94;98874.98;1755223;81;20118;-47
2022/09/25 07:16:34;;;;;;;;;;;;;;;10.41;80.76;98875.76;1755303;82;20399;-47
2022/09/25 07:19:01;;;;;;;;;;;;;;;10.46;80.37;98873.67;1755187;82;20107;-47
2022/09/25 07:21:29;;;;;;;;;;;;;;;10.53;80.74;98873.22;1755259;82;20107;-54
2022/09/25 07:23:55;;;;;;;;;;;;;;;10.60;80.14;98880.23;1755122;82;20118;-48
2022/09/25 07:26:22;;;;;;;;;;;;;;;10.69;80.46;98878.34;1755392;82;20103;-47
2022/09/25 07:28:54;;;;;;;;;;;;;;;10.76;80.55;98880.97;1755271;81;20118;-49
2022/09/25 07:31:22;;;;;;;;;;;;;;;10.85;79.63;98880.03;1754453;82;20131;-48
2022/09/25 07:33:48;;;;;;;;;;;;;;;10.93;79.77;98876.43;1754704;82;20106;-54
2022/09/25 07:36:15;;;;;;;;;;;;;;;11.01;79.65;98879.91;1755214;80;20131;-47
2022/09/25 07:38:40;;;;;;;;;;;;;;;11.05;78.69;98878.28;1755216;82;20416;-50
2022/09/25 07:41:09;;;;;;;;;;;;;;;11.13;78.74;98872.53;1755227;81;20110;-48
2022/09/25 07:43:37;;;;;;;;;;;;;;;11.23;78.70;98871.48;1733847;82;20115;-49
2022/09/25 07:46:02;;;;;;;;;;;;;;;11.32;78.27;98874.83;1755134;82;20569;-49
2022/09/25 07:48:29;;;;;;;;;;;;;;;11.43;78.36;98871.02;1755205;82;20162;-47
2022/09/25 07:51:00;;;;;;;;;;;;;;;11.52;78.09;98860.36;1755113;81;20477;-50
2022/09/25 07:53:26;;;;;;;;;;;;;;;11.62;77.89;98855.31;1755398;81;20146;-53
2022/09/25 07:55:58;;;;;;;;;;;;;;;11.73;78.12;98851.48;1755159;82;20384;-50
2022/09/25 07:58:24;;;;;;;;;;;;;;;11.83;77.18;98853.88;1754745;82;20130;-49
2022/09/25 08:00:50;;;;;;;;;;;;;;;11.96;77.36;98857.05;1755263;81;20114;-50
2022/09/25 08:03:16;;;;;;;;;;;;;;;12.06;76.55;98855.45;1755419;80;20098;-45
2022/09/25 08:05:42;;;;;;;;;;;;;;;12.21;76.51;98858.37;1755228;81;20098;-50
2022/09/25 08:08:07;;;;;;;;;;;;;;;12.36;76.18;98851.67;1755241;82;20094;-52
2022/09/25 08:10:33;;;;;;;;;;;;;;;12.49;76.11;98848.53;1755432;82;20094;-49
2022/09/25 08:12:59;;;;;;;;;;;;;;;12.65;75.77;98852.25;1755218;82;20090;-52
2022/09/25 08:15:24;;;;;;;;;;;;;;;12.82;74.96;98848.41;1755222;82;20146;-50
2022/09/25 08:17:50;;;;;;;;;;;;;;;12.96;72.70;98852.70;1755208;82;20102;-47
2022/09/25 08:20:16;;;;;;;;;;;;;;;13.12;73.62;98848.48;1755212;82;20439;-49
2022/09/25 08:22:42;;;;;;;;;;;;;;;13.27;73.57;98852.63;1755041;81;20134;-48
2022/09/25 08:25:07;;;;;;;;;;;;;;;13.40;73.44;98855.23;1754197;81;20157;-49
2022/09/25 08:27:39;;;;;;;;;;;;;;;13.51;73.26;98851.80;1754108;82;20141;-46
2022/09/25 08:30:02;;;;;;;;;;;;;;;13.61;73.29;98851.00;1755136;82;20102;-49
2022/09/25 08:32:28;;;;;;;;;;;;;;;13.69;71.78;98843.81;1755237;82;20102;-48
2022/09/25 08:34:54;;;;;;;;;;;;;;;13.74;70.07;98846.95;1755249;82;20099;-48
2022/09/25 08:37:19;;;;;;;;;;;;;;;13.79;71.66;98838.69;1755328;82;20126;-48
2022/09/25 08:39:45;;;;;;;;;;;;;;;13.83;72.76;98837.01;1755245;82;20094;-49
2022/09/25 08:42:17;;;;;;;;;;;;;;;13.85;72.21;98833.42;1755172;81;20106;-51
2022/09/25 08:49:00;;;;;;;;;;;;;;;13.85;71.14;98836.89;1755253;81;20103;-49
2022/09/25 08:50:20;;;;;;;;;;;;;;;13.93;70.04;98841.10;1751257;82;20450;-51
2022/09/25 08:52:48;;;;;;;;;;;;;;;14.00;69.37;98832.23;1746664;80;20115;-49
2022/09/25 08:55:16;;;;;;;;;;;;;;;14.12;71.05;98827.33;1746745;81;20115;-52
2022/09/25 08:57:44;;;;;;;;;;;;;;;14.27;68.37;98830.58;1746774;81;20127;-51
2022/09/25 09:00:13;;;;;;;;;;;;;;;14.38;67.99;98823.96;1746642;81;20158;-50
2022/09/25 09:02:41;;;;;;;;;;;;;;;14.52;69.33;98826.86;1746161;82;20428;-49
2022/09/25 09:05:10;;;;;;;;;;;;;;;14.69;67.75;98831.32;1746673;81;20107;-49
2022/09/25 09:07:45;;;;;;;;;;;;;;;14.94;68.09;98829.71;1746227;81;20404;-50
2022/09/25 09:10:23;;;;;;;;;;;;;;;15.12;62.74;98827.37;1746729;81;20119;-49
2022/09/25 09:13:12;;;;;;;;;;;;;;;15.29;63.34;98825.16;1746510;82;20433;-49
2022/09/25 09:15:47;;;;;;;;;;;;;;;15.44;62.31;98820.39;1746716;81;20535;-51
2022/09/25 09:18:21;;;;;;;;;;;;;;;15.58;60.55;98821.41;1746379;82;20388;-49
2022/09/25 09:20:55;;;;;;;;;;;;;;;15.88;64.26;98819.36;1736855;82;20107;-50
2022/09/25 09:23:23;;;;;;;;;;;;;;;15.87;62.71;98813.69;1746721;81;20110;-49
2022/09/25 09:25:55;;;;;;;;;;;;;;;15.82;61.61;98809.75;1746693;82;20119;-48
2022/09/25 09:28:41;;;;;;;;;;;;;;;15.81;61.37;98808.05;1727117;82;20115;-52
2022/09/25 09:31:16;;;;;;;;;;;;;;;15.77;63.19;98800.02;1746729;82;20103;-50
2022/09/25 09:33:46;;;;;;;;;;;;;;;15.65;59.23;98794.75;1746838;82;20131;-49
2022/09/25 09:36:27;;;;;;;;;;;;;;;15.61;60.58;98789.36;1736956;82;20110;-51
2022/09/25 09:38:59;;;;;;;;;;;;;;;15.59;60.93;98791.77;1746515;82;20115;-47
2022/09/25 09:41:38;;;;;;;;;;;;;;;15.54;59.95;98785.05;1746634;81;20103;-46
2022/09/25 09:44:13;;;;;;;;;;;;;;;15.52;61.58;98791.46;1746268;82;20138;-49
2022/09/25 09:46:57;;;;;;;;;;;;;;;15.50;60.58;98784.96;1746635;81;20111;-48
2022/09/25 09:49:38;;;;;;;;;;;;;;;15.48;64.57;98779.41;1747175;81;20139;-49
2022/09/25 09:52:13;;;;;;;;;;;;;;;15.37;64.05;98778.98;1755435;82;20106;-51
2022/09/25 09:54:54;;;;;;;;;;;;;;;15.31;60.36;98784.80;1755213;82;20412;-51
2022/09/25 09:57:23;;;;;;;;;;;;;;;15.30;59.75;98783.14;1754785;82;20119;-51
2022/09/25 09:59:53;;;;;;;;;;;;;;;15.24;59.55;98780.48;1755230;82;20407;-51
2022/09/25 10:02:34;;;;;;;;;;;;;;;15.26;61.52;98773.74;1755162;82;20114;-48
2022/09/25 10:05:03;;;;;;;;;;;;;;;15.26;61.13;98770.64;1755044;82;20106;-50
2022/09/25 10:07:32;;;;;;;;;;;;;;;15.33;61.26;98774.92;1734046;82;20130;-45
2022/09/25 10:09:58;;;;;;;;;;;;;;;15.34;61.49;98768.17;1734320;82;20411;-47
2022/09/25 10:12:34;;;;;;;;;;;;;;;15.42;61.35;98766.69;1755310;82;20126;-49
2022/09/25 10:15:03;;;;;;;;;;;;;;;15.50;61.97;98760.28;1734382;82;20115;-47
2022/09/25 10:17:29;;;;;;;;;;;;;;;15.61;62.77;98769.48;1755184;81;20118;-46
2022/09/25 10:19:58;;;;;;;;;;;;;;;15.69;62.48;98756.90;1755283;81;20427;-48
2022/09/25 10:22:31;;;;;;;;;;;;;;;15.69;61.17;98763.03;1754885;82;20117;-47
2022/09/25 10:25:04;;;;;;;;;;;;;;;15.67;58.71;98767.63;1753263;81;20131;-47
2022/09/25 10:27:47;;;;;;;;;;;;;;;15.65;57.20;98756.32;1755348;82;20106;-51
2022/09/25 10:30:17;;;;;;;;;;;;;;;15.67;56.49;98754.38;1755268;82;20115;-48
2022/09/25 10:33:00;;;;;;;;;;;;;;;15.69;57.73;98752.43;1755403;81;20098;-45
2022/09/25 10:35:30;;;;;;;;;;;;;;;15.69;58.10;98750.27;1733759;82;20199;-48
2022/09/25 10:37:59;;;;;;;;;;;;;;;15.71;57.78;98750.48;1751906;82;20449;-49
2022/09/25 10:40:36;;;;;;;;;;;;;;;15.76;56.13;98750.63;1754135;82;20141;-52
2022/09/25 10:43:16;;;;;;;;;;;;;;;15.85;58.48;98740.06;1755471;82;20106;-53
2022/09/25 10:45:42;;;;;;;;;;;;;;;15.91;54.96;98738.70;1755397;82;20115;-48
2022/09/25 10:51:10;;;;;;;;;;;;;;;15.97;52.32;98730.23;1755331;82;20403;-51
2022/09/25 10:53:36;;;;;;;;;;;;;;;16.21;59.30;98731.22;1755352;81;20483;-51
2022/09/25 10:56:08;;;;;;;;;;;;;;;16.70;57.34;98731.34;1755302;81;20113;-49
2022/09/25 10:58:50;;;;;;;;;;;;;;;16.90;56.64;98728.25;1754776;81;20436;-48
2022/09/25 11:01:16;;;;;;;;;;;;;;;16.97;52.85;98729.84;1755013;82;20107;-47
2022/09/25 11:03:49;;;;;;;;;;;;;;;16.97;52.80;98729.84;1755261;82;20138;-50
2022/09/25 11:06:23;;;;;;;;;;;;;;;16.94;49.33;98720.35;1755324;81;20146;-48
2022/09/25 11:08:55;;;;;;;;;;;;;;;17.37;48.79;98715.56;1753420;82;20118;-49
2022/09/25 11:11:25;;;;;;;;;;;;;;;18.57;47.18;98721.50;1754430;81;20142;-51
2022/09/25 11:13:53;;;;;;;;;;;;;;;19.92;43.67;98717.84;1755189;82;20102;-52
2022/09/25 11:16:19;;;;;;;;;;;;;;;21.20;39.48;98716.38;1755222;82;20114;-49
2022/09/25 11:18:50;;;;;;;;;;;;;;;22.20;36.22;98716.88;1755168;82;20149;-49
2022/09/25 11:21:31;;;;;;;;;;;;;;;23.15;34.49;98713.70;1755243;82;20114;-48
2022/09/25 11:24:00;;;;;;;;;;;;;;;24.28;39.29;98715.42;1755119;82;20131;-48
2022/09/25 11:26:33;;;;;;;;;;;;;;;24.98;31.12;98721.75;1755227;82;20138;-50
2022/09/25 11:29:04;;;;;;;;;;;;;;;25.88;33.00;98713.48;1752912;81;20148;-51
2022/09/25 11:31:40;;;;;;;;;;;;;;;25.78;30.31;98714.37;1754080;82;20118;-49
2022/09/25 11:34:12;;;;;;;;;;;;;;;26.35;28.19;98721.33;1755351;82;20492;-48
2022/09/25 11:36:44;;;;;;;;;;;;;;;27.36;30.65;98720.59;1754962;82;20115;-48
2022/09/25 11:42:10;;;;;;;;;;;;;;;28.38;26.91;98716.67;1755364;82;20127;-47
2022/09/25 11:44:46;;;;;;;;;;;;;;;27.27;25.65;98719.64;1754560;82;20416;-50
2022/09/25 11:47:17;;;;;;;;;;;;;;;26.31;27.74;98714.68;1755314;81;20133;-47
2022/09/25 11:49:52;;;;;;;;;;;;;;;25.05;29.89;98714.55;1755148;81;20110;-47
2022/09/25 11:52:40;;;;;;;;;;;;;;;24.26;31.19;98704.55;1755270;82;20106;-50
2022/09/25 11:55:26;;;;;;;;;;;;;;;23.71;34.00;98696.75;1755302;82;20431;-51
2022/09/25 11:58:25;;;;;;;;;;;;;;;23.40;34.87;98694.22;1754253;82;20406;-53
2022/09/25 12:01:08;;;;;;;;;;;;;;;22.72;34.41;98697.21;1755242;82;20564;-50
2022/09/25 12:03:56;;;;;;;;;;;;;;;22.18;34.40;98700.16;1753679;82;20130;-51
2022/09/25 12:06:31;;;;;;;;;;;;;;;21.78;36.70;98685.91;1723962;82;20168;-51
2022/09/25 12:09:17;;;;;;;;;;;;;;;21.61;37.22;98685.59;1754580;82;20138;-52
2022/09/25 12:12:14;;;;;;;;;;;;;;;23.16;35.01;98684.55;1754629;82;20110;-52
2022/09/25 12:14:55;;;;;;;;;;;;;;;24.91;30.77;98681.33;1755001;82;20399;-48
2022/09/25 12:17:33;;;;;;;;;;;;;;;24.62;33.78;98687.65;1754918;81;20110;-51
2022/09/25 12:20:15;;;;;;;;;;;;;;;24.17;33.19;98678.81;1753903;82;20139;-51
2022/09/25 12:22:47;;;;;;;;;;;;;;;23.51;31.98;98673.64;1754078;82;20426;-48
2022/09/25 12:25:22;;;;;;;;;;;;;;;23.31;34.83;98671.98;1754363;81;20142;-53
2022/09/25 12:27:55;;;;;;;;;;;;;;;22.94;35.32;98670.94;1726493;81;20114;-51
2022/09/25 12:30:26;;;;;;;;;;;;;;;22.55;33.92;98680.41;1754817;82;20388;-53
2022/09/25 12:33:13;;;;;;;;;;;;;;;22.04;34.96;98668.23;1755305;82;20110;-50
2022/09/25 12:35:59;;;;;;;;;;;;;;;21.62;38.52;98668.55;1755289;82;20412;-50
2022/09/25 12:38:29;;;;;;;;;;;;;;;22.92;34.95;98672.11;1728992;83;20112;-51
2022/09/25 12:41:01;;;;;;;;;;;;;;;24.61;32.76;98661.78;1729294;83;20116;-50
2022/09/25 12:43:40;;;;;;;;;;;;;;;25.49;31.26;98657.00;1729126;83;20454;-51
2022/09/25 12:46:28;;;;;;;;;;;;;;;26.19;29.95;98659.69;1729224;83;20116;-51
2022/09/25 12:49:03;;;;;;;;;;;;;;;26.79;31.02;98666.10;1729523;83;20108;-52
2022/09/25 12:51:40;;;;;;;;;;;;;;;26.93;28.52;98668.84;1729188;83;20121;-52
2022/09/25 12:54:18;;;;;;;;;;;;;;;26.50;30.30;98665.91;1729462;83;20137;-52
2022/09/25 12:56:56;;;;;;;;;;;;;;;25.70;30.28;98662.00;1729510;83;20160;-51
2022/09/25 12:59:32;;;;;;;;;;;;;;;25.14;30.81;98661.45;1729426;83;20140;-55
2022/09/25 13:02:02;;;;;;;;;;;;;;;24.87;32.46;98667.44;1729527;83;20174;-48
2022/09/25 13:04:57;;;;;;;;;;;;;;;24.56;31.67;98664.20;1729489;83;20116;-48
2022/09/25 13:07:48;;;;;;;;;;;;;;;23.96;31.71;98656.25;1729498;83;20414;-49
2022/09/25 13:10:41;;;;;;;;;;;;;;;23.58;31.84;98651.77;1642345;87;20123;-49
2022/09/25 13:13:18;;;;;;;;;;;;;;;23.05;33.45;98655.45;1642329;87;20152;-48
2022/09/25 13:15:43;;;;;;;;;;;;;;;23.16;33.19;98651.02;1642081;87;20441;-51
2022/09/25 13:18:18;;;;;;;;;;;;;;;23.20;34.23;98652.31;1642448;87;20156;-49
2022/09/25 13:20:49;;;;;;;;;;;;;;;23.37;35.31;98641.73;1642030;87;20432;-51
2022/09/25 13:23:30;;;;;;;;;;;;;;;25.04;32.12;98645.65;1642349;86;20160;-51
2022/09/25 13:26:01;;;;;;;;;;;;;;;25.62;30.47;98643.63;1644538;86;20124;-51